Time;durP1;ratioP1;P1;durP2;ratioP2;P2;SDS_P1;SDS_P2;PMS_P1;PMS_P2;Temp;Humidity;BMP_temperature;BMP_pressure;BME280_temperature;BME280_humidity;BME280_pressure;Samples;Min_cycle;Max_cycle;Signal;HPM_P1;HPM_P2
2022/08/20 00:02:14;;;;;;;15.52;10.18;;;;;;;18.87;100.00;101498.13;4957998;28;20050;-81
2022/08/20 00:04:42;;;;;;;13.00;10.25;;;;;;;18.87;100.00;101498.13;5001996;28;20072;-81
2022/08/20 00:07:12;;;;;;;15.75;10.68;;;;;;;18.86;100.00;101493.66;5003623;28;20291;-82
2022/08/20 00:09:41;;;;;;;17.30;11.18;;;;;;;18.84;100.00;101485.69;4994523;28;20060;-82
2022/08/20 00:12:14;;;;;;;12.80;10.38;;;;;;;18.83;100.00;101481.28;4973629;28;20034;-82
2022/08/20 00:14:43;;;;;;;15.85;11.63;;;;;;;18.83;100.00;101489.28;4993409;28;20045;-82
2022/08/20 00:17:11;;;;;;;10.75;9.40;;;;;;;18.83;100.00;101486.59;4976403;28;20054;-81
2022/08/20 00:19:40;;;;;;;13.10;10.85;;;;;;;18.84;100.00;101488.34;4993593;28;20058;-81
2022/08/20 00:22:08;;;;;;;16.98;10.05;;;;;;;18.84;100.00;101491.03;5017548;28;20053;-81
2022/08/20 00:24:36;;;;;;;13.80;11.10;;;;;;;18.85;100.00;101482.13;4965370;28;20037;-83
2022/08/20 00:27:05;;;;;;;15.38;10.93;;;;;;;18.83;100.00;101483.94;4970886;28;20065;-83
2022/08/20 00:29:33;;;;;;;12.40;10.60;;;;;;;18.84;100.00;101495.50;4944083;28;20057;-82
2022/08/20 00:32:02;;;;;;;13.27;9.35;;;;;;;18.85;100.00;101498.13;4973126;28;20396;-82
2022/08/20 00:34:30;;;;;;;12.13;9.98;;;;;;;18.84;100.00;101491.03;5001363;28;20042;-82
2022/08/20 00:36:59;;;;;;;12.05;10.80;;;;;;;18.84;100.00;101492.81;5004843;28;20041;-83
2022/08/20 00:39:27;;;;;;;12.32;9.38;;;;;;;18.84;100.00;101492.81;4991039;28;20046;-82
2022/08/20 00:41:56;;;;;;;15.73;11.13;;;;;;;18.81;100.00;101491.09;4984093;28;20050;-83
2022/08/20 00:44:25;;;;;;;14.57;9.32;;;;;;;18.79;100.00;101492.00;4975697;28;20053;-81
2022/08/20 00:46:54;;;;;;;13.52;10.27;;;;;;;18.77;100.00;101494.72;4999434;28;20045;-82
2022/08/20 00:49:29;;;;;;;14.68;8.93;;;;;;;18.75;100.00;101484.97;5006125;28;20041;-82
2022/08/20 00:52:08;;;;;;;10.50;8.05;;;;;;;18.73;100.00;101492.13;4972053;28;20049;-82
2022/08/20 00:54:39;;;;;;;14.02;8.25;;;;;;;18.72;100.00;101479.72;5011390;28;20685;-82
2022/08/20 00:57:21;;;;;;;12.68;8.23;;;;;;;18.71;100.00;101489.47;5005716;28;20049;-82
2022/08/20 00:59:58;;;;;;;15.27;7.57;;;;;;;18.68;100.00;101493.09;4972368;28;20037;-81
2022/08/20 01:02:28;;;;;;;7.72;6.70;;;;;;;18.66;100.00;101486.94;4998436;28;20065;-81
2022/08/20 01:05:03;;;;;;;16.42;8.25;;;;;;;18.64;100.00;101486.06;4987631;28;20046;-82
2022/08/20 01:07:33;;;;;;;17.25;8.23;;;;;;;18.63;100.00;101492.31;4982635;28;20257;-81
2022/08/20 01:10:06;;;;;;;14.10;7.93;;;;;;;18.61;100.00;101483.47;4959308;28;20043;-82
2022/08/20 01:12:36;;;;;;;10.32;6.90;;;;;;;18.58;100.00;101487.97;4993849;28;20254;-81
2022/08/20 01:15:08;;;;;;;;;;;;;;;18.56;100.00;101488.00;4978123;28;20448;-82
2022/08/20 01:17:40;;;;;;;9.45;7.32;;;;;;;18.54;100.00;101486.28;5025619;28;20330;-82
2022/08/20 01:20:13;;;;;;;12.10;7.45;;;;;;;18.51;100.00;101487.22;5025756;28;20054;-81
2022/08/20 01:26:16;;;;;;;13.23;7.50;;;;;;;18.48;100.00;101481.94;5012078;28;20061;-81
2022/08/20 01:28:55;;;;;;;11.98;6.85;;;;;;;18.44;100.00;101483.78;5004711;28;20045;-82
2022/08/20 01:31:30;;;;;;;13.73;6.35;;;;;;;18.43;100.00;101490.06;4971516;28;20038;-82
2022/08/20 01:34:01;;;;;;;13.82;6.43;;;;;;;18.42;100.00;101493.63;5016891;28;20050;-81
2022/08/20 01:36:33;;;;;;;;;;;;;;;18.38;100.00;101481.25;4990322;28;20054;-80
2022/08/20 01:39:05;;;;;;;10.50;6.78;;;;;;;18.36;100.00;101495.53;5002822;28;19944;-83
2022/08/20 01:42:07;;;;;;;13.05;5.75;;;;;;;18.35;100.00;101491.09;5014485;28;20054;-81
2022/08/20 01:44:38;;;;;;;10.50;5.95;;;;;;;18.31;100.00;101496.47;5014513;28;20238;-81
2022/08/20 01:47:09;;;;;;;;;;;;;;;18.31;100.00;101495.59;4989801;28;20041;-81
2022/08/20 01:49:42;;;;;;;10.40;6.05;;;;;;;18.28;100.00;101501.03;5007941;28;19921;-81
2022/08/20 01:52:27;;;;;;;11.02;6.07;;;;;;;18.27;100.00;101491.25;5004858;28;20045;-81
2022/08/20 01:54:58;;;;;;;9.93;5.95;;;;;;;18.29;100.00;101498.28;5005320;28;20493;-84
2022/08/20 01:57:28;;;;;;;8.95;5.30;;;;;;;18.27;100.00;101496.56;4999543;28;20060;-82
2022/08/20 01:59:56;;;;;;;11.35;5.72;;;;;;;18.26;100.00;101498.38;5008880;28;20057;-81
2022/08/20 02:02:25;;;;;;;12.60;6.15;;;;;;;18.26;100.00;101500.13;4978220;28;20060;-81
2022/08/20 02:04:56;;;;;;;9.38;6.10;;;;;;;18.24;100.00;101493.97;4997767;28;20042;-80
2022/08/20 02:07:25;;;;;;;9.65;5.72;;;;;;;18.23;100.00;101503.75;5002532;28;20056;-81
2022/08/20 02:09:54;;;;;;;9.57;6.40;;;;;;;18.20;100.00;101493.13;5006079;28;20046;-82
2022/08/20 02:12:22;;;;;;;12.32;6.20;;;;;;;18.16;100.00;101491.44;5012717;28;20050;-81
2022/08/20 02:14:53;;;;;;;12.95;6.75;;;;;;;18.13;100.00;101504.84;5019697;28;20046;-82
2022/08/20 02:17:24;;;;;;;14.82;6.50;;;;;;;18.11;100.00;101504.00;4989069;28;21980;-81
2022/08/20 02:20:01;;;;;;;10.85;6.80;;;;;;;18.08;100.00;101504.91;4994492;28;20388;-83
2022/08/20 02:22:43;;;;;;;11.15;6.90;;;;;;;18.05;100.00;101509.41;5000399;28;20167;-81
2022/08/20 02:25:21;;;;;;;14.38;7.55;;;;;;;18.02;100.00;101509.47;5001795;28;20045;-82
2022/08/20 02:27:52;;;;;;;11.15;6.25;;;;;;;17.96;100.00;101518.47;5013260;28;20064;-81
2022/08/20 02:30:29;;;;;;;8.93;6.10;;;;;;;17.92;100.00;101514.09;5006932;28;20041;-81
2022/08/20 02:32:58;;;;;;;7.80;6.07;;;;;;;17.88;100.00;101521.25;4945810;28;20050;-81
2022/08/20 02:35:29;;;;;;;8.63;6.75;;;;;;;17.85;100.00;101525.75;5009139;28;20570;-82
2022/08/20 02:37:59;;;;;;;13.57;7.45;;;;;;;17.80;100.00;101514.25;5014640;28;20050;-84
2022/08/20 02:40:30;;;;;;;11.25;7.35;;;;;;;17.76;100.00;101525.88;4999450;28;20053;-82
2022/08/20 02:43:01;;;;;;;11.13;6.90;;;;;;;17.72;100.00;101525.03;5033277;28;20045;-83
2022/08/20 02:45:37;;;;;;;11.60;6.03;;;;;;;17.69;100.00;101531.31;5027651;28;20038;-81
2022/08/20 02:48:05;;;;;;;12.20;7.18;;;;;;;17.68;100.00;101523.31;4993989;28;20042;-81
2022/08/20 02:50:34;;;;;;;13.60;6.32;;;;;;;17.66;100.00;101522.47;5017110;28;20056;-81
2022/08/20 02:53:02;;;;;;;11.00;5.85;;;;;;;17.60;100.00;101523.44;4997575;28;20030;-82
2022/08/20 02:55:32;;;;;;;12.07;5.75;;;;;;;17.56;100.00;101519.06;4995389;28;20041;-81
2022/08/20 02:58:00;;;;;;;10.52;5.68;;;;;;;17.54;100.00;101526.19;5014105;28;20353;-83
2022/08/20 03:00:31;;;;;;;8.57;6.43;;;;;;;17.51;100.00;101520.91;5013525;28;20075;-81
2022/08/20 03:03:08;;;;;;;11.35;5.68;;;;;;;17.45;100.00;101519.22;5043641;28;20049;-81
2022/08/20 03:05:40;;;;;;;11.48;6.13;;;;;;;17.39;100.00;101518.41;4967014;28;20050;-80
2022/08/20 03:08:11;;;;;;;9.57;4.75;;;;;;;17.34;100.00;101514.03;5014964;28;20061;-81
2022/08/20 03:10:42;;;;;;;15.18;5.82;;;;;;;17.31;100.00;101526.53;4999148;28;20414;-82
2022/08/20 03:13:13;;;;;;;16.63;5.63;;;;;;;17.28;100.00;101527.44;5000282;28;20038;-82
2022/08/20 03:15:45;;;;;;;5.60;4.07;;;;;;;17.24;100.00;101533.72;5005761;28;20526;-81
2022/08/20 03:18:14;;;;;;;13.23;4.93;;;;;;;17.23;100.00;101531.09;5020459;28;20072;-82
2022/08/20 03:20:44;;;;;;;9.70;4.13;;;;;;;17.19;100.00;101537.34;4975577;28;20425;-81
2022/08/20 03:23:20;;;;;;;12.98;4.45;;;;;;;17.15;100.00;101528.53;5005243;28;20167;-83
2022/08/20 03:25:49;;;;;;;6.63;3.33;;;;;;;17.11;100.00;101537.47;5049015;28;20041;-81
2022/08/20 03:28:18;;;;;;;14.90;4.07;;;;;;;17.09;100.00;101534.81;5002540;28;20283;-83
2022/08/20 03:30:47;;;;;;;10.35;3.97;;;;;;;17.06;100.00;101541.94;5027071;28;20042;-81
2022/08/20 03:33:16;;;;;;;8.63;3.72;;;;;;;17.03;100.00;101541.97;5006429;28;20069;-81
2022/08/20 03:35:45;;;;;;;11.23;4.90;;;;;;;16.99;100.00;101541.13;4977787;28;20076;-81
2022/08/20 03:38:16;;;;;;;6.63;4.10;;;;;;;16.96;100.00;101546.53;5020477;28;20061;-83
2022/08/20 03:40:49;;;;;;;14.52;4.10;;;;;;;16.93;100.00;101538.56;5012944;28;20049;-82
2022/08/20 03:43:20;;;;;;;8.77;3.65;;;;;;;16.90;100.00;101542.16;5017819;28;20068;-81
2022/08/20 03:45:49;;;;;;;6.85;3.70;;;;;;;16.87;100.00;101551.94;5022901;28;20053;-81
2022/08/20 03:48:20;;;;;;;12.02;3.83;;;;;;;16.84;100.00;101551.97;4996777;28;20187;-82
2022/08/20 03:50:50;;;;;;;10.55;3.35;;;;;;;16.80;100.00;101553.75;4992895;28;20042;-81
2022/08/20 03:53:19;;;;;;;14.77;3.78;;;;;;;16.77;100.00;101552.00;4979976;28;20458;-82
2022/08/20 03:55:52;;;;;;;14.52;3.53;;;;;;;16.72;100.00;101548.50;5016544;28;20053;-82
2022/08/20 03:58:22;;;;;;;7.68;2.90;;;;;;;16.69;100.00;101548.56;5004989;28;20050;-81
2022/08/20 04:01:05;;;;;;;10.75;4.03;;;;;;;16.66;100.00;101553.03;4997546;28;20152;-82
2022/08/20 04:03:36;;;;;;;4.25;2.90;;;;;;;16.62;100.00;101551.31;4990283;28;20425;-81
2022/08/20 04:06:06;;;;;;;7.40;3.15;;;;;;;16.58;100.00;101550.47;4983691;28;20533;-82
2022/08/20 04:08:34;;;;;;;11.73;3.55;;;;;;;16.54;100.00;101552.28;4985082;28;20030;-81
2022/08/20 04:11:02;;;;;;;22.40;4.22;;;;;;;16.51;100.00;101546.09;4979537;28;20050;-81
2022/08/20 04:13:34;;;;;;;10.68;3.35;;;;;;;16.49;100.00;101559.41;5013792;28;20061;-81
2022/08/20 04:16:08;;;;;;;9.23;3.67;;;;;;;16.48;100.00;101555.00;4981853;28;20042;-81
2022/08/20 04:18:42;;;;;;;6.40;3.33;;;;;;;16.49;100.00;101556.75;5002521;28;20503;-82
2022/08/20 04:21:31;;;;;;;6.90;2.90;;;;;;;16.48;100.00;101562.06;5011520;28;20159;-81
2022/08/20 04:24:04;;;;;;;11.40;3.20;;;;;;;16.47;100.00;101557.66;4965778;28;20407;-82
2022/08/20 04:26:35;;;;;;;9.70;2.70;;;;;;;16.46;100.00;101561.22;5003040;28;20042;-82
2022/08/20 04:29:03;;;;;;;8.15;2.67;;;;;;;16.46;100.00;101563.88;5021526;28;20046;-83
2022/08/20 04:31:33;;;;;;;12.65;3.83;;;;;;;16.43;100.00;101564.78;5022154;28;20054;-81
2022/08/20 04:34:06;;;;;;;9.63;3.00;;;;;;;16.43;100.00;101575.44;4981633;28;20053;-82
2022/08/20 04:36:35;;;;;;;9.65;3.92;;;;;;;16.41;100.00;101569.25;5017028;28;20483;-83
2022/08/20 04:39:04;;;;;;;11.90;3.38;;;;;;;16.41;100.00;101571.91;4977118;28;20057;-83
2022/08/20 04:41:32;;;;;;;10.52;3.28;;;;;;;16.38;100.00;101575.47;4996382;28;20076;-81
2022/08/20 04:44:01;;;;;;;6.97;2.78;;;;;;;16.39;100.00;101571.06;5005072;28;20033;-83
2022/08/20 04:46:31;;;;;;;4.35;2.50;;;;;;;16.41;100.00;101579.91;4970660;28;20030;-81
2022/08/20 04:49:02;;;;;;;8.77;3.00;;;;;;;16.41;100.00;101579.91;5006700;28;20049;-82
2022/08/20 04:51:32;;;;;;;13.70;3.22;;;;;;;16.40;100.00;101578.13;4994284;28;20057;-81
2022/08/20 04:54:02;;;;;;;;;;;;;;;16.36;100.00;101590.56;4980131;28;20049;-80
2022/08/20 04:56:37;;;;;;;8.00;3.17;;;;;;;16.35;100.00;101595.88;4993201;28;20127;-82
2022/08/20 04:59:06;;;;;;;10.48;3.13;;;;;;;16.36;100.00;101585.25;5015386;28;20049;-83
2022/08/20 05:01:35;;;;;;;11.98;2.75;;;;;;;16.37;100.00;101588.81;5039733;28;20053;-82
2022/08/20 05:04:04;;;;;;;8.70;2.95;;;;;;;16.37;100.00;101594.13;4999752;28;20046;-82
2022/08/20 05:06:32;;;;;;;13.02;2.95;;;;;;;16.38;100.00;101595.88;4989059;28;20042;-83
2022/08/20 05:09:01;;;;;;;8.07;2.72;;;;;;;16.39;100.00;101605.63;4982773;28;20048;-81
2022/08/20 05:11:29;;;;;;;9.23;2.58;;;;;;;16.41;100.00;101597.59;4952432;28;20050;-80
2022/08/20 05:14:07;;;;;;;7.32;2.55;;;;;;;16.41;100.00;101598.50;5012094;28;20033;-81
2022/08/20 05:16:38;;;;;;;8.52;2.92;;;;;;;16.44;100.00;101600.25;4998401;28;20034;-81
2022/08/20 05:19:08;;;;;;;;;;;;;;;16.43;100.00;101595.84;5015061;28;20049;-82
2022/08/20 05:21:37;;;;;;;9.30;2.40;;;;;;;16.43;100.00;101603.81;5019002;28;20366;-81
2022/08/20 05:24:06;;;;;;;10.20;2.60;;;;;;;16.42;100.00;101607.38;4989546;28;20682;-81
2022/08/20 05:26:36;;;;;;;7.13;3.35;;;;;;;16.42;100.00;101596.72;4978038;28;20038;-81
2022/08/20 05:29:05;;;;;;;10.57;2.80;;;;;;;16.43;100.00;101606.50;4995161;28;20049;-81
2022/08/20 05:31:34;;;;;;;4.97;2.03;;;;;;;16.44;100.00;101609.09;4999178;28;20061;-80
2022/08/20 05:34:08;;;;;;;12.18;3.47;;;;;;;16.45;100.00;101594.06;4985754;28;20046;-80
2022/08/20 05:36:41;;;;;;;11.35;2.97;;;;;;;16.48;100.00;101602.88;4997421;28;20033;-79
2022/08/20 05:39:11;;;;;;;6.28;2.85;;;;;;;16.50;100.00;101606.41;4977802;28;20042;-85
2022/08/20 05:41:40;;;;;;;;;;;;;;;16.51;100.00;101609.94;5015641;28;20391;-83
2022/08/20 05:44:12;;;;;;;7.00;2.55;;;;;;;16.53;100.00;101609.03;4973561;28;19921;-84
2022/08/20 05:46:43;;;;;;;10.00;3.00;;;;;;;16.54;100.00;101610.81;4996904;28;20161;-83
2022/08/20 05:49:15;;;;;;;7.97;2.88;;;;;;;16.55;100.00;101617.88;4979374;28;20055;-85
2022/08/20 05:51:45;;;;;;;6.60;2.60;;;;;;;16.55;100.00;101623.19;4961689;28;20057;-82
2022/08/20 05:54:14;;;;;;;9.00;2.60;;;;;;;16.56;100.00;101621.44;4985600;28;20252;-82
2022/08/20 05:56:42;;;;;;;11.90;2.83;;;;;;;16.56;100.00;101618.78;4981658;28;20062;-83
2022/08/20 05:59:12;;;;;;;4.88;2.42;;;;;;;16.56;100.00;101622.31;4950270;28;20053;-83
2022/08/20 06:01:42;;;;;;;6.75;2.17;;;;;;;16.59;100.00;101618.72;4939029;28;20048;-83
2022/08/20 06:04:27;;;;;;;6.85;2.50;;;;;;;16.61;100.00;101619.59;4917378;29;20062;-84
2022/08/20 06:07:01;;;;;;;6.20;2.65;;;;;;;16.67;100.00;101627.53;4921187;29;20040;-85
2022/08/20 06:09:32;;;;;;;5.72;2.70;;;;;;;16.72;100.00;101628.34;4942908;28;20063;-83
2022/08/20 06:12:06;;;;;;;7.85;2.60;;;;;;;16.79;100.00;101623.00;4908511;29;20463;-82
2022/08/20 06:14:35;;;;;;;7.78;2.33;;;;;;;16.86;100.00;101630.94;4933456;29;20060;-82
2022/08/20 06:17:07;;;;;;;8.80;2.78;;;;;;;16.94;100.00;101628.19;4942602;28;20067;-85
2022/08/20 06:19:38;;;;;;;5.18;2.53;;;;;;;17.03;100.00;101621.84;4968505;28;20051;-82
2022/08/20 06:22:12;;;;;;;5.85;2.35;;;;;;;17.10;100.00;101624.44;4960605;28;20051;-84
2022/08/20 06:24:49;;;;;;;7.07;2.65;;;;;;;17.20;100.00;101627.91;4940470;28;20039;-83
2022/08/20 06:27:18;;;;;;;16.23;3.15;;;;;;;17.27;100.00;101623.34;4950734;28;20046;-82
2022/08/20 06:29:48;;;;;;;8.00;2.85;;;;;;;17.37;100.00;101626.78;4938909;28;20046;-84
2022/08/20 06:32:20;;;;;;;8.15;2.55;;;;;;;17.48;100.00;101631.06;4940014;28;20294;-83
2022/08/20 06:35:01;;;;;;;5.78;2.90;;;;;;;17.61;100.00;101636.25;4986619;28;20037;-85
2022/08/20 06:37:35;;;;;;;9.25;2.70;;;;;;;17.74;100.00;101629.84;4999840;28;20038;-83
2022/08/20 06:40:11;;;;;;;7.85;2.70;;;;;;;18.00;100.00;101629.50;5011643;28;20054;-83
2022/08/20 06:42:42;;;;;;;7.15;2.25;;;;;;;18.19;100.00;101624.75;5014701;28;20046;-83
2022/08/20 06:45:24;;;;;;;9.23;2.22;;;;;;;18.31;100.00;101629.00;4961429;28;20042;-82
2022/08/20 06:47:56;;;;;;;4.60;1.67;;;;;;;18.34;100.00;101620.09;4963346;28;20186;-83
2022/08/20 06:50:30;;;;;;;7.32;1.55;;;;;;;18.38;100.00;101624.47;4993695;28;20062;-83
2022/08/20 06:53:00;;;;;;;10.00;1.90;;;;;;;18.43;100.00;101627.91;4975554;28;20332;-84
2022/08/20 06:55:31;;;;;;;12.75;2.45;;;;;;;18.47;100.00;101619.84;4968069;28;20047;-83
2022/08/20 06:58:08;;;;;;;8.40;1.80;;;;;;;18.53;100.00;101629.53;4977543;28;20065;-86
2022/08/20 07:00:58;;;;;;;7.95;2.10;;;;;;;18.62;100.00;101620.47;4983927;28;20452;-84
2022/08/20 07:03:39;;;;;;;6.20;1.27;;;;;;;18.68;100.00;101623.03;4985496;28;20185;-83
2022/08/20 07:06:19;;;;;;;5.60;1.58;;;;;;;18.78;100.00;101623.75;4969398;28;20670;-85
2022/08/20 07:08:48;;;;;;;10.20;1.92;;;;;;;18.86;100.00;101630.72;4984352;28;20030;-83
2022/08/20 07:11:17;;;;;;;7.38;1.70;;;;;;;18.95;100.00;101632.34;4996571;28;20050;-85
2022/08/20 07:13:57;;;;;;;4.82;1.40;;;;;;;19.08;100.00;101627.66;4978661;28;20062;-84
2022/08/20 07:16:26;;;;;;;;;;;;;;;19.15;100.00;101633.75;4992892;28;20046;-85
2022/08/20 07:19:04;;;;;;;5.97;1.40;;;;;;;19.23;100.00;101631.81;5004706;28;19929;-84
2022/08/20 07:21:33;;;;;;;4.53;1.40;;;;;;;19.31;100.00;101634.31;5030912;28;20057;-85
2022/08/20 07:24:04;;;;;;;8.35;1.80;;;;;;;19.40;100.00;101635.00;4970586;28;20350;-84
2022/08/20 07:26:33;;;;;;;;;;;;;;;19.42;100.00;101641.19;4996483;28;20499;-84
2022/08/20 07:29:02;;;;;;;5.18;1.40;;;;;;;19.50;100.00;101648.19;4979705;28;19929;-83
2022/08/20 07:34:17;;;;;;;4.38;1.20;;;;;;;19.72;100.00;101646.84;4994962;28;20060;-84
2022/08/20 07:36:59;;;;;;;4.90;1.23;;;;;;;19.79;100.00;101647.56;4962600;28;20061;-85
2022/08/20 07:39:34;;;;;;;3.53;1.20;;;;;;;19.84;100.00;101646.53;4998964;28;20419;-85
2022/08/20 07:42:08;;;;;;;4.63;1.27;;;;;;;19.86;100.00;101658.09;4984795;28;20046;-84
2022/08/20 07:44:37;;;;;;;3.08;1.30;;;;;;;19.88;100.00;101662.53;4995299;28;20058;-85
2022/08/20 07:47:06;;;;;;;4.35;1.58;;;;;;;19.85;100.00;101658.16;4955857;28;20138;-84
2022/08/20 07:49:38;;;;;;;4.65;1.45;;;;;;;19.88;100.00;101665.22;5014689;28;20034;-86
2022/08/20 07:52:07;;;;;;;3.42;1.38;;;;;;;19.86;100.00;101662.56;4981354;28;20046;-81
2022/08/20 07:54:37;;;;;;;2.85;1.00;;;;;;;19.90;100.00;101666.06;4992341;28;20058;-81
2022/08/20 07:57:10;;;;;;;2.33;1.20;;;;;;;19.91;100.00;101668.69;5006785;28;20424;-81
2022/08/20 07:59:39;;;;;;;7.13;1.60;;;;;;;19.99;100.00;101672.06;4982177;28;20034;-81
2022/08/20 08:02:08;;;;;;;4.80;1.25;;;;;;;20.05;100.00;101666.56;4991510;28;20061;-82
2022/08/20 08:04:38;;;;;;;3.90;1.60;;;;;;;20.15;100.00;101671.69;5002423;28;20390;-83
2022/08/20 08:07:06;;;;;;;6.25;1.38;;;;;;;20.23;100.00;101675.09;5016740;28;20160;-83
2022/08/20 08:09:36;;;;;;;9.38;1.45;;;;;;;20.35;100.00;101679.28;4999233;28;20522;-82
2022/08/20 08:12:04;;;;;;;4.00;1.40;;;;;;;20.41;100.00;101676.44;5013409;28;20279;-83
2022/08/20 08:14:35;;;;;;;5.65;2.20;;;;;;;20.46;100.00;101677.22;5015185;28;20042;-83
2022/08/20 08:17:04;;;;;;;4.47;1.20;;;;;;;20.46;100.00;101677.22;4973085;28;20054;-80
2022/08/20 08:19:38;;;;;;;5.00;1.15;;;;;;;20.44;100.00;101682.59;5007050;28;20502;-81
2022/08/20 08:22:11;;;;;;;2.83;1.10;;;;;;;20.48;100.00;101677.19;4988245;28;20064;-80
2022/08/20 08:24:40;;;;;;;3.47;0.93;;;;;;;20.50;100.00;101681.56;5004904;28;20042;-80
2022/08/20 08:27:31;;;;;;;4.32;1.20;;;;;;;20.51;100.00;101679.75;5005252;28;20042;-80
2022/08/20 08:30:01;;;;;;;3.92;1.05;;;;;;;20.49;100.00;101671.78;5005881;28;20271;-79
2022/08/20 08:32:31;;;;;;;3.40;1.10;;;;;;;20.48;100.00;101670.00;4983530;28;20491;-79
2022/08/20 08:35:06;;;;;;;5.25;1.50;;;;;;;20.48;100.00;101672.69;4972794;28;20043;-79
2022/08/20 08:37:40;;;;;;;3.42;1.00;;;;;;;20.54;100.00;101672.53;4999453;28;20037;-80
2022/08/20 08:40:11;;;;;;;4.93;1.15;;;;;;;20.64;100.00;101667.84;4995839;28;20046;-79
2022/08/20 08:42:47;;;;;;;2.60;1.15;;;;;;;20.76;99.71;101664.00;4991895;28;20057;-79
2022/08/20 08:45:18;;;;;;;5.07;1.23;;;;;;;20.88;99.54;101668.13;4990954;28;20038;-79
2022/08/20 08:47:47;;;;;;;4.25;1.50;;;;;;;20.95;98.23;101670.63;4992981;28;20054;-80
2022/08/20 08:50:29;;;;;;;4.75;1.23;;;;;;;20.94;97.81;101674.19;4996889;28;20526;-81
2022/08/20 08:53:27;;;;;;;3.25;1.10;;;;;;;20.99;98.54;101674.09;4996629;28;20053;-81
2022/08/20 08:56:08;;;;;;;2.92;1.52;;;;;;;21.08;98.69;101675.63;5014243;28;20339;-82
2022/08/20 08:58:37;;;;;;;6.25;1.10;;;;;;;21.17;97.86;101675.38;4980335;28;20051;-83
2022/08/20 09:01:16;;;;;;;3.80;1.27;;;;;;;21.21;95.99;101677.94;4998378;28;20149;-82
2022/08/20 09:04:04;;;;;;;5.40;1.23;;;;;;;21.35;96.92;101673.97;4988850;28;20042;-82
2022/08/20 09:06:33;;;;;;;3.88;1.05;;;;;;;21.48;96.08;101688.81;4937806;28;20425;-83
2022/08/20 09:09:05;;;;;;;4.65;1.38;;;;;;;21.58;94.64;101686.75;4971031;28;20048;-83
2022/08/20 09:11:51;;;;;;;4.78;1.42;;;;;;;21.65;93.86;101691.00;5006080;28;20030;-82
2022/08/20 09:14:23;;;;;;;3.22;0.98;;;;;;;21.67;93.88;101688.28;5025252;28;20042;-84
2022/08/20 09:16:52;;;;;;;6.50;1.55;;;;;;;21.76;92.75;101694.25;5008972;28;20527;-82
2022/08/20 09:19:23;;;;;;;4.03;1.30;;;;;;;21.84;91.74;101695.84;4986925;28;20056;-82
2022/08/20 09:21:54;;;;;;;5.43;1.67;;;;;;;21.78;92.58;101689.72;4941307;28;20065;-83
2022/08/20 09:24:23;;;;;;;3.53;1.00;;;;;;;21.68;94.33;101698.06;5008447;28;20056;-82
2022/08/20 09:26:52;;;;;;;4.20;1.52;;;;;;;21.65;94.28;101699.06;5008114;28;20049;-82
2022/08/20 09:29:20;;;;;;;2.80;1.10;;;;;;;21.65;92.22;101701.75;4986414;28;20042;-83
2022/08/20 09:31:48;;;;;;;5.40;1.40;;;;;;;21.64;90.30;101697.28;4989355;28;20303;-84
2022/08/20 09:34:17;;;;;;;4.35;1.25;;;;;;;21.69;89.88;101697.16;4978203;28;20046;-83
2022/08/20 09:36:45;;;;;;;3.40;1.08;;;;;;;21.72;88.01;101692.59;4959490;28;20042;-85
2022/08/20 09:39:14;;;;;;;0.77;0.60;;;;;;;21.78;88.20;101695.09;4993624;28;21098;-85
2022/08/20 09:41:46;;;;;;;2.60;0.93;;;;;;;21.83;85.64;101686.88;4957122;28;20034;-84
2022/08/20 09:44:15;;;;;;;5.78;1.23;;;;;;;21.78;85.53;101691.53;5005172;28;20046;-84
2022/08/20 09:46:49;;;;;;;1.85;1.10;;;;;;;21.73;85.17;101696.16;5003141;28;20174;-84
2022/08/20 09:49:24;;;;;;;4.43;1.40;;;;;;;21.66;84.99;101699.94;4951073;28;20066;-83
2022/08/20 09:51:55;;;;;;;6.82;1.33;;;;;;;21.61;85.44;101697.41;4968013;28;20050;-83
2022/08/20 09:54:26;;;;;;;2.78;1.20;;;;;;;21.66;86.28;101697.25;4991225;28;20061;-83
2022/08/20 09:56:57;;;;;;;3.90;1.48;;;;;;;21.76;84.97;101696.94;5016849;28;20034;-84
2022/08/20 09:59:27;;;;;;;4.15;1.08;;;;;;;21.89;86.05;101701.91;5002987;28;20045;-84
2022/08/20 10:01:57;;;;;;;2.35;1.33;;;;;;;22.08;85.73;101702.22;4997934;28;20046;-84
2022/08/20 10:04:27;;;;;;;1.25;0.75;;;;;;;22.27;84.10;101698.09;4980500;28;20042;-84
2022/08/20 10:06:56;;;;;;;4.65;1.20;;;;;;;22.34;82.64;101706.78;4971107;28;20054;-84
2022/08/20 10:09:27;;;;;;;3.67;1.13;;;;;;;22.27;81.57;101707.91;4981813;28;20496;-83
2022/08/20 10:11:56;;;;;;;4.47;1.63;;;;;;;22.12;81.45;101709.28;5006494;28;20050;-83
2022/08/20 10:14:26;;;;;;;3.33;1.10;;;;;;;21.98;82.79;101704.31;4975461;28;20057;-83
2022/08/20 10:16:57;;;;;;;5.57;1.50;;;;;;;21.84;83.37;101701.19;4989732;28;20612;-83
2022/08/20 10:19:28;;;;;;;3.53;1.42;;;;;;;21.67;82.50;101709.75;5009263;28;20058;-82
2022/08/20 10:21:59;;;;;;;6.70;1.23;;;;;;;21.51;82.84;101704.84;4992821;28;20224;-81
2022/08/20 10:24:29;;;;;;;6.65;1.20;;;;;;;21.47;83.40;101711.19;4928131;28;20062;-82
2022/08/20 10:26:59;;;;;;;;;;;;;;;21.59;80.42;101715.34;5025936;28;20274;-81
2022/08/20 10:29:29;;;;;;;5.07;1.27;;;;;;;21.78;83.68;101705.81;5011754;28;19921;-82
2022/08/20 10:32:11;;;;;;;3.30;1.20;;;;;;;22.00;83.66;101707.84;5006407;28;20038;-83
2022/08/20 10:34:42;;;;;;;5.03;1.33;;;;;;;22.09;84.09;101699.50;5002370;28;20065;-81
2022/08/20 10:37:22;;;;;;;4.90;1.40;;;;;;;22.13;82.80;101711.88;4996488;28;20061;-80
2022/08/20 10:39:54;;;;;;;4.57;1.52;;;;;;;22.06;81.65;101706.75;4969648;28;20407;-83
2022/08/20 10:42:23;;;;;;;5.75;1.40;;;;;;;21.95;81.48;101708.00;5007865;28;20411;-82
2022/08/20 10:44:53;;;;;;;;;;;;;;;21.89;80.48;101713.56;4953295;28;20251;-83
2022/08/20 10:47:30;;;;;;;4.97;1.30;;;;;;;21.99;83.34;101714.13;4979115;28;19912;-82
2022/08/20 10:50:04;;;;;;;5.57;1.65;;;;;;;22.11;81.51;101713.75;4973299;28;20275;-83
2022/08/20 10:52:32;;;;;;;3.83;1.45;;;;;;;22.30;81.89;101716.75;5000439;28;20053;-82
2022/08/20 10:55:03;;;;;;;4.35;1.27;;;;;;;22.26;80.08;101723.16;4982542;28;20042;-82
2022/08/20 10:57:32;;;;;;;5.97;1.45;;;;;;;22.18;80.75;101720.69;5009880;28;20498;-82
2022/08/20 11:00:02;;;;;;;3.85;1.38;;;;;;;22.05;80.19;101718.44;5001238;28;20172;-81
2022/08/20 11:02:31;;;;;;;3.95;1.30;;;;;;;21.98;80.80;101725.78;5013088;28;20042;-82
2022/08/20 11:05:01;;;;;;;6.13;1.67;;;;;;;21.96;81.44;101720.47;4993637;28;20046;-83
2022/08/20 11:07:35;;;;;;;8.48;1.90;;;;;;;21.97;81.88;101716.88;4984408;28;20038;-85
2022/08/20 11:10:26;;;;;;;6.35;1.42;;;;;;;22.03;82.69;101714.94;4970490;28;20038;-80
2022/08/20 11:12:54;;;;;;;;;;;;;;;22.05;79.60;101718.44;5009938;28;20045;-80
2022/08/20 11:15:22;;;;;;;3.03;1.23;;;;;;;22.06;83.95;101717.50;5009933;28;19922;-82
2022/08/20 11:17:52;;;;;;;5.47;1.23;;;;;;;22.08;83.31;101715.63;4931089;28;20050;-85
2022/08/20 11:20:25;;;;;;;3.03;1.40;;;;;;;22.07;81.12;101722.81;4955727;28;20039;-83
2022/08/20 11:22:57;;;;;;;4.30;1.13;;;;;;;22.09;81.24;101726.34;4947684;29;20257;-82
2022/08/20 11:25:26;;;;;;;6.25;1.98;;;;;;;22.11;81.43;101716.44;4923690;28;20050;-82
2022/08/20 11:27:57;;;;;;;8.95;2.38;;;;;;;22.07;81.76;101728.19;4957529;28;20283;-83
2022/08/20 11:30:29;;;;;;;5.22;1.35;;;;;;;22.10;80.70;101724.56;4928962;28;20049;-83
2022/08/20 11:32:59;;;;;;;7.82;1.60;;;;;;;22.24;81.51;101732.16;4937801;28;20515;-83
2022/08/20 11:35:29;;;;;;;5.28;1.45;;;;;;;22.39;80.11;101729.88;4966494;28;20047;-84
2022/08/20 11:38:17;;;;;;;8.57;1.45;;;;;;;22.48;78.47;101725.16;4955528;28;20059;-85
2022/08/20 11:40:46;;;;;;;8.30;1.95;;;;;;;22.66;78.92;101720.97;4932721;28;20074;-85
2022/08/20 11:43:15;;;;;;;8.35;1.98;;;;;;;22.74;76.24;101725.19;4970324;28;20051;-84
2022/08/20 11:45:54;;;;;;;7.03;2.25;;;;;;;22.74;77.09;101724.28;4955589;28;20058;-83
2022/08/20 11:48:22;;;;;;;4.53;1.90;;;;;;;22.67;76.19;101723.63;4956087;28;20054;-82